Powhatan — WCZ5243 — position and weather

sailwx.info

Track history (hours):
 
Tides and Currents Weather Stations Pressure Air Temp Water Temp Dewpoint Dewpoint Depression Visibility Wind Speed Wind Dir Waves Ship Positions

Powhatan

Owner: SAUSE BROS., COOS BAY, OR. More information available from US FCC via Universal Licensing System and Coast Guard Vessel Documentation Center.

Last reported at 2018-Jan-12 03:37 UTC. Time now 2018-Feb-21 07:42 UTC.
Position N 38°33' W 123°38'.
Warning: this ship's position is 40 days out of date.

Type: Towing. MMSI: 367008820.

Date/timePositionNaut miles runAvg speedWind from/ knotsBaromVisibWave heightAir tempDewpointWater temp
2018-Jan-12 03:37N 38°33' W 123°38'1 6.9
2018-Jan-12 03:30N 38°33' W 123°38'39 7.3
2018-Jan-11 22:06N 38°00' W 123°10'4 7.5
2018-Jan-11 21:33N 37°58' W 123°06'0 7.8
2018-Jan-11 21:30N 37°57' W 123°05'6 6.9
2018-Jan-11 20:41N 37°55' W 122°59'2 6.5
2018-Jan-11 20:20N 37°54' W 122°56'3 6.7
2018-Jan-11 19:56N 37°52' W 122°54'3 6.7
2018-Jan-11 19:28N 37°51' W 122°50'3 7.2
2018-Jan-11 19:00N 37°49' W 122°46'4 7.2
2018-Jan-11 18:30N 37°48' W 122°42'4 7.4
2018-Jan-11 18:00N 37°46' W 122°38'4 8.0
2018-Jan-11 17:30N 37°47' W 122°33'4 8.8
2018-Jan-11 17:00N 37°49' W 122°28'3 6.9
2018-Jan-11 16:30N 37°49' W 122°24'2 4.6
2018-Jan-11 16:00N 37°46' W 122°23'0 0.0
2018-Jan-11 15:30N 37°46' W 122°23'0 0.0
2018-Jan-11 15:00N 37°46' W 122°23'0 0.0
2018-Jan-11 14:30N 37°46' W 122°23'0 0.0
2018-Jan-11 14:00N 37°46' W 122°23'0 0.0
2018-Jan-11 13:29N 37°46' W 122°23'0 0.0
2018-Jan-11 12:59N 37°46' W 122°23'0 0.0
2018-Jan-11 12:29N 37°46' W 122°23'0 0.0
2018-Jan-11 11:59N 37°46' W 122°23'0 0.0
2018-Jan-11 11:29N 37°46' W 122°23'0 0.0
2018-Jan-11 10:59N 37°46' W 122°23'0 0.0
2018-Jan-11 10:29N 37°46' W 122°23'0 0.0
2018-Jan-11 09:59N 37°46' W 122°23'0 0.0
2018-Jan-11 09:29N 37°46' W 122°23'0 0.0
2018-Jan-11 08:59N 37°46' W 122°23'0 0.0
2018-Jan-11 08:29N 37°46' W 122°23'0 0.0
2018-Jan-11 07:59N 37°46' W 122°23'0 0.0
2018-Jan-11 07:29N 37°46' W 122°23'0 0.0
2018-Jan-11 06:59N 37°46' W 122°23'0 0.0
2018-Jan-11 06:29N 37°46' W 122°23'0 0.0
2018-Jan-11 05:59N 37°46' W 122°23'0 0.0
2018-Jan-11 05:29N 37°46' W 122°23'0 0.0
2018-Jan-11 04:59N 37°46' W 122°23'0 0.0
2018-Jan-11 04:29N 37°46' W 122°23'0 0.0
2018-Jan-11 03:59N 37°46' W 122°23'0 0.0
2018-Jan-11 03:29N 37°46' W 122°23'0 0.0
2018-Jan-11 02:59N 37°46' W 122°23'0 0.0
2018-Jan-11 02:29N 37°46' W 122°23'0 0.0
2018-Jan-11 01:59N 37°46' W 122°23'0 0.0
2018-Jan-11 01:29N 37°46' W 122°23'0 0.0
2018-Jan-11 00:59N 37°46' W 122°23'0 0.0
2018-Jan-11 00:29N 37°46' W 122°23'0 0.0
2018-Jan-10 23:59N 37°46' W 122°23'0 0.0
2018-Jan-10 23:29N 37°46' W 122°23'0 0.0
2018-Jan-10 22:59N 37°46' W 122°23'0 0.0
2018-Jan-10 22:29N 37°46' W 122°23'0 0.0
2018-Jan-10 21:59N 37°46' W 122°23'  
Track history (hours):
 
Tides and Currents Weather Stations Pressure Air Temp Water Temp Dewpoint Dewpoint Depression Visibility Wind Speed Wind Dir Waves Ship Positions

Powhatan

Owner: SAUSE BROS., COOS BAY, OR. More information available from US FCC via Universal Licensing System and Coast Guard Vessel Documentation Center.

Last reported at 2018-Jan-12 03:37 UTC. Time now 2018-Feb-21 07:42 UTC.
Position N 38°33' W 123°38'.
Warning: this ship's position is 40 days out of date.

Type: Towing. MMSI: 367008820.

Date/timePositionNaut miles runAvg speedWind from/ knotsBaromVisibWave heightAir tempDewpointWater temp
2018-Jan-12 03:37N 38°33' W 123°38'1 6.9
2018-Jan-12 03:30N 38°33' W 123°38'39 7.3
2018-Jan-11 22:06N 38°00' W 123°10'4 7.5
2018-Jan-11 21:33N 37°58' W 123°06'0 7.8
2018-Jan-11 21:30N 37°57' W 123°05'6 6.9
2018-Jan-11 20:41N 37°55' W 122°59'2 6.5
2018-Jan-11 20:20N 37°54' W 122°56'3 6.7
2018-Jan-11 19:56N 37°52' W 122°54'3 6.7
2018-Jan-11 19:28N 37°51' W 122°50'3 7.2
2018-Jan-11 19:00N 37°49' W 122°46'4 7.2
2018-Jan-11 18:30N 37°48' W 122°42'4 7.4
2018-Jan-11 18:00N 37°46' W 122°38'4 8.0
2018-Jan-11 17:30N 37°47' W 122°33'4 8.8
2018-Jan-11 17:00N 37°49' W 122°28'3 6.9
2018-Jan-11 16:30N 37°49' W 122°24'2 4.6
2018-Jan-11 16:00N 37°46' W 122°23'0 0.0
2018-Jan-11 15:30N 37°46' W 122°23'0 0.0
2018-Jan-11 15:00N 37°46' W 122°23'0 0.0
2018-Jan-11 14:30N 37°46' W 122°23'0 0.0
2018-Jan-11 14:00N 37°46' W 122°23'0 0.0
2018-Jan-11 13:29N 37°46' W 122°23'0 0.0
2018-Jan-11 12:59N 37°46' W 122°23'0 0.0
2018-Jan-11 12:29N 37°46' W 122°23'0 0.0
2018-Jan-11 11:59N 37°46' W 122°23'0 0.0
2018-Jan-11 11:29N 37°46' W 122°23'0 0.0
2018-Jan-11 10:59N 37°46' W 122°23'0 0.0
2018-Jan-11 10:29N 37°46' W 122°23'0 0.0
2018-Jan-11 09:59N 37°46' W 122°23'0 0.0
2018-Jan-11 09:29N 37°46' W 122°23'0 0.0
2018-Jan-11 08:59N 37°46' W 122°23'0 0.0
2018-Jan-11 08:29N 37°46' W 122°23'0 0.0
2018-Jan-11 07:59N 37°46' W 122°23'0 0.0
2018-Jan-11 07:29N 37°46' W 122°23'0 0.0
2018-Jan-11 06:59N 37°46' W 122°23'0 0.0
2018-Jan-11 06:29N 37°46' W 122°23'0 0.0
2018-Jan-11 05:59N 37°46' W 122°23'0 0.0
2018-Jan-11 05:29N 37°46' W 122°23'0 0.0
2018-Jan-11 04:59N 37°46' W 122°23'0 0.0
2018-Jan-11 04:29N 37°46' W 122°23'0 0.0
2018-Jan-11 03:59N 37°46' W 122°23'0 0.0
2018-Jan-11 03:29N 37°46' W 122°23'0 0.0
2018-Jan-11 02:59N 37°46' W 122°23'0 0.0
2018-Jan-11 02:29N 37°46' W 122°23'0 0.0
2018-Jan-11 01:59N 37°46' W 122°23'0 0.0
2018-Jan-11 01:29N 37°46' W 122°23'0 0.0
2018-Jan-11 00:59N 37°46' W 122°23'0 0.0
2018-Jan-11 00:29N 37°46' W 122°23'0 0.0
2018-Jan-10 23:59N 37°46' W 122°23'0 0.0
2018-Jan-10 23:29N 37°46' W 122°23'0 0.0
2018-Jan-10 22:59N 37°46' W 122°23'0 0.0
2018-Jan-10 22:29N 37°46' W 122°23'0 0.0
2018-Jan-10 21:59N 37°46' W 122°23'  

Dump ship's entire track history